createdAt,value
2023-01-29T00:04:40.287Z,18.20
2023-01-29T00:09:47.297Z,19.00
2023-01-29T00:14:55.555Z,19.67
2023-01-29T00:20:02.519Z,18.07
2023-01-29T00:25:10.676Z,20.63
2023-01-29T00:30:19.997Z,18.13
2023-01-29T00:35:27.626Z,18.07
2023-01-29T00:40:36.438Z,18.70
2023-01-29T00:45:43.264Z,19.77
2023-01-29T00:50:50.620Z,17.07
2023-01-29T00:55:57.738Z,20.43
2023-01-29T01:01:04.614Z,20.40
2023-01-29T01:06:12.523Z,20.80
2023-01-29T01:11:23.097Z,20.40
2023-01-29T01:16:30.269Z,24.00
2023-01-29T01:21:37.360Z,19.43
2023-01-29T01:26:45.007Z,22.43
2023-01-29T01:31:53.531Z,17.93
2023-01-29T01:37:00.601Z,19.07
2023-01-29T01:42:10.179Z,16.83
2023-01-29T01:47:18.504Z,17.70
2023-01-29T01:52:25.918Z,19.03
2023-01-29T01:57:34.177Z,18.57
2023-01-29T02:02:44.735Z,18.33
2023-01-29T02:07:54.275Z,17.17
2023-01-29T02:13:03.523Z,15.40
2023-01-29T02:18:10.645Z,14.77
2023-01-29T02:23:19.156Z,17.80
2023-01-29T02:28:27.067Z,15.47
2023-01-29T02:33:35.098Z,16.70
2023-01-29T02:38:45.026Z,16.63
2023-01-29T02:43:54.917Z,17.03
2023-01-29T02:49:05.833Z,16.77
2023-01-29T02:54:15.794Z,17.37
2023-01-29T02:59:25.702Z,18.80
2023-01-29T03:04:35.834Z,16.10
2023-01-29T03:09:45.707Z,17.40
2023-01-29T03:14:54.939Z,17.73
2023-01-29T03:20:04.524Z,18.83
2023-01-29T03:25:14.754Z,18.60
2023-01-29T03:30:27.376Z,21.07
2023-01-29T03:35:39.875Z,22.13
2023-01-29T03:40:48.999Z,20.27
2023-01-29T03:45:59.200Z,20.63
2023-01-29T03:51:08.659Z,20.40
2023-01-29T03:56:20.113Z,22.83
2023-01-29T04:01:30.115Z,20.47
2023-01-29T04:06:39.741Z,20.17
2023-01-29T04:11:50.464Z,19.43
2023-01-29T04:17:02.173Z,22.13
2023-01-29T04:22:14.211Z,21.93
2023-01-29T04:27:24.220Z,22.00
2023-01-29T04:32:34.871Z,18.50
2023-01-29T04:37:44.791Z,23.40
2023-01-29T04:42:54.622Z,20.67
2023-01-29T04:48:04.587Z,20.87
2023-01-29T04:53:13.071Z,19.47
2023-01-29T04:58:22.294Z,22.30
2023-01-29T05:03:31.838Z,19.37
2023-01-29T05:08:40.944Z,18.20
2023-01-29T05:13:49.968Z,20.27
2023-01-29T05:18:57.107Z,19.00
2023-01-29T05:24:07.098Z,19.27
2023-01-29T05:29:14.033Z,16.80
2023-01-29T05:34:20.977Z,16.70
2023-01-29T05:39:29.080Z,18.00
2023-01-29T05:44:36.032Z,21.67
2023-01-29T05:49:43.277Z,18.07
2023-01-29T05:54:50.159Z,17.33
2023-01-29T05:59:56.911Z,15.93
2023-01-29T06:05:03.865Z,16.97
2023-01-29T06:10:12.258Z,18.03
2023-01-29T06:15:20.263Z,18.20
2023-01-29T06:20:27.202Z,17.77
2023-01-29T06:25:34.967Z,19.83
2023-01-29T06:30:41.833Z,17.43
2023-01-29T06:35:48.717Z,17.50
2023-01-29T06:40:56.044Z,18.93
2023-01-29T06:46:03.035Z,18.10
2023-01-29T06:51:11.909Z,18.87
2023-01-29T06:56:18.754Z,18.53
2023-01-29T07:01:35.836Z,20.47
2023-01-29T07:06:34.969Z,18.93
2023-01-29T07:11:42.024Z,18.20
2023-01-29T07:16:49.068Z,19.63
2023-01-29T07:21:57.394Z,19.43
2023-01-29T07:27:04.200Z,22.70
2023-01-29T07:32:11.245Z,19.37
2023-01-29T07:37:18.294Z,18.97
2023-01-29T07:42:25.560Z,20.07
2023-01-29T07:47:32.885Z,21.27
2023-01-29T07:52:41.261Z,20.00
2023-01-29T07:57:48.919Z,18.87
2023-01-29T08:02:57.421Z,19.03
2023-01-29T08:08:07.355Z,20.83
2023-01-29T08:13:13.127Z,20.03
2023-01-29T08:18:20.207Z,19.50
2023-01-29T08:23:27.153Z,19.07
2023-01-29T08:28:35.787Z,20.20
2023-01-29T08:33:43.066Z,15.67
2023-01-29T08:38:50.639Z,15.23
2023-01-29T08:43:58.356Z,16.70
2023-01-29T08:49:05.684Z,14.80
2023-01-29T08:54:13.731Z,16.17
2023-01-29T08:59:22.620Z,17.23
2023-01-29T09:04:29.718Z,17.47
2023-01-29T09:09:37.795Z,15.70
2023-01-29T09:14:44.839Z,15.27
2023-01-29T09:19:53.576Z,13.97
2023-01-29T09:25:00.449Z,13.33
2023-01-29T09:30:08.108Z,12.33
2023-01-29T09:35:15.394Z,13.10
2023-01-29T09:40:27.013Z,12.20
2023-01-29T09:45:35.259Z,10.53
2023-01-29T09:50:45.064Z,14.07
2023-01-29T09:55:54.080Z,11.67
2023-01-29T10:01:04.049Z,10.87
2023-01-29T10:06:14.053Z,10.13
2023-01-29T10:11:23.846Z,10.47
2023-01-29T10:16:32.657Z,11.43
2023-01-29T10:21:44.054Z,11.03
2023-01-29T10:26:53.499Z,13.20
2023-01-29T10:32:05.503Z,11.77
2023-01-29T10:37:15.871Z,10.97
2023-01-29T10:42:25.832Z,9.43
2023-01-29T10:47:34.356Z,11.07
2023-01-29T10:52:45.000Z,10.00
2023-01-29T10:57:55.195Z,12.33
2023-01-29T11:03:08.154Z,12.03
2023-01-29T11:08:16.596Z,11.00
2023-01-29T11:13:26.380Z,10.50
2023-01-29T11:18:36.285Z,10.30
2023-01-29T11:23:43.441Z,9.13
2023-01-29T11:28:52.720Z,7.73
2023-01-29T11:34:03.509Z,6.27
2023-01-29T11:39:14.302Z,8.67
2023-01-29T11:44:24.061Z,7.70
2023-01-29T11:49:33.572Z,7.10
2023-01-29T11:54:43.410Z,8.33
2023-01-29T11:59:53.062Z,6.83
2023-01-29T12:05:02.800Z,6.37
2023-01-29T12:10:12.965Z,8.43
2023-01-29T12:15:24.690Z,12.17
2023-01-29T12:20:34.931Z,9.83
2023-01-29T12:25:45.179Z,9.77
2023-01-29T12:30:55.347Z,15.33
2023-01-29T12:36:05.280Z,13.33
2023-01-29T12:41:13.334Z,14.00
2023-01-29T12:46:26.001Z,9.93
2023-01-29T12:51:36.190Z,12.57
2023-01-29T12:56:47.709Z,15.27
2023-01-29T13:01:58.078Z,14.70
2023-01-29T13:07:08.490Z,10.77
2023-01-29T13:12:19.158Z,10.40
2023-01-29T13:17:28.979Z,11.67
2023-01-29T13:22:38.839Z,13.73
2023-01-29T13:27:48.128Z,12.03
2023-01-29T13:32:58.322Z,14.00
2023-01-29T13:38:07.313Z,12.27
2023-01-29T13:43:20.637Z,13.07
2023-01-29T13:48:31.997Z,15.20
2023-01-29T13:53:42.131Z,14.40
2023-01-29T13:58:49.470Z,13.77
2023-01-29T14:04:06.101Z,15.90
2023-01-29T14:09:10.419Z,18.80
2023-01-29T14:14:20.510Z,14.63
2023-01-29T14:19:27.959Z,11.20
2023-01-29T14:24:35.709Z,12.17
2023-01-29T14:29:43.644Z,13.20
2023-01-29T14:34:53.113Z,11.77
2023-01-29T14:40:02.850Z,13.50
2023-01-29T14:45:12.733Z,17.30
2023-01-29T14:50:22.909Z,14.23
2023-01-29T14:55:32.923Z,12.60
2023-01-29T15:00:43.842Z,12.83
2023-01-29T15:05:53.067Z,13.37
2023-01-29T15:11:05.000Z,12.00
2023-01-29T15:16:15.117Z,14.33
2023-01-29T15:21:22.309Z,14.80
2023-01-29T15:26:29.419Z,15.67
2023-01-29T15:31:36.787Z,14.00
2023-01-29T15:36:44.484Z,14.53
2023-01-29T15:41:53.180Z,14.80
2023-01-29T15:47:02.727Z,13.00
2023-01-29T15:52:12.757Z,14.83
2023-01-29T15:57:25.486Z,15.17
2023-01-29T16:02:35.459Z,20.00
2023-01-29T16:07:43.399Z,17.73
2023-01-29T16:12:52.398Z,16.87
2023-01-29T16:18:00.562Z,15.47
2023-01-29T16:23:10.185Z,16.30
2023-01-29T16:28:18.140Z,17.20
2023-01-29T16:33:28.069Z,13.87
2023-01-29T16:38:36.904Z,14.00
2023-01-29T16:43:44.987Z,17.00
2023-01-29T16:48:52.335Z,18.60
2023-01-29T16:54:02.450Z,12.43
2023-01-29T16:59:12.265Z,14.97
2023-01-29T17:04:20.753Z,15.43
2023-01-29T17:09:31.096Z,14.33
2023-01-29T17:14:38.820Z,16.87
2023-01-29T17:19:46.701Z,22.10
2023-01-29T17:24:53.796Z,20.60
2023-01-29T17:30:00.949Z,15.20
2023-01-29T17:35:14.691Z,15.57
2023-01-29T17:40:24.836Z,16.60
2023-01-29T17:45:31.995Z,14.53
2023-01-29T17:50:41.217Z,16.13
2023-01-29T17:55:48.665Z,14.77
2023-01-29T18:00:56.507Z,15.10
2023-01-29T18:06:03.558Z,16.27
2023-01-29T18:11:13.476Z,15.00
2023-01-29T18:16:22.181Z,13.83
2023-01-29T18:21:32.364Z,15.40
2023-01-29T18:26:39.342Z,14.23
2023-01-29T18:31:47.921Z,14.87
2023-01-29T18:36:54.847Z,14.13
2023-01-29T18:42:01.791Z,13.43
2023-01-29T18:47:08.918Z,14.37
2023-01-29T18:52:16.840Z,12.30
2023-01-29T18:58:26.067Z,14.70
2023-01-29T19:02:32.210Z,13.53
2023-01-29T19:07:39.483Z,13.27
2023-01-29T19:12:46.608Z,13.73
2023-01-29T19:17:53.841Z,16.57
2023-01-29T19:23:00.857Z,16.43
2023-01-29T19:28:09.159Z,11.67
2023-01-29T19:33:16.067Z,10.30
2023-01-29T19:38:23.257Z,11.73
2023-01-29T19:43:31.235Z,12.13
2023-01-29T19:48:38.284Z,14.80
2023-01-29T19:53:45.396Z,14.17
2023-01-29T19:58:54.349Z,13.07
2023-01-29T20:04:01.813Z,13.13
2023-01-29T20:09:09.240Z,15.33
2023-01-29T20:14:16.387Z,14.33
2023-01-29T20:19:23.362Z,12.57
2023-01-29T20:24:32.102Z,14.30
2023-01-29T20:29:40.086Z,13.30
2023-01-29T20:34:48.758Z,13.13
2023-01-29T20:39:55.733Z,14.50
2023-01-29T20:45:02.711Z,17.57
2023-01-29T20:50:12.184Z,13.57
2023-01-29T20:55:19.694Z,17.47
2023-01-29T21:00:28.342Z,14.23
2023-01-29T21:05:35.404Z,13.20
2023-01-29T21:10:43.367Z,12.77
2023-01-29T21:15:51.825Z,10.57
2023-01-29T21:20:59.010Z,13.77
2023-01-29T21:26:07.307Z,21.07
2023-01-29T21:31:16.696Z,26.87
2023-01-29T21:36:23.882Z,24.10
2023-01-29T21:41:32.432Z,25.60
2023-01-29T21:46:39.349Z,25.77
2023-01-29T21:51:46.351Z,29.40
2023-01-29T21:56:53.230Z,29.50
2023-01-29T22:02:01.728Z,20.07
2023-01-29T22:07:09.298Z,31.50
2023-01-29T22:12:17.654Z,29.40
2023-01-29T22:17:24.534Z,30.47
2023-01-29T22:22:32.930Z,30.33
2023-01-29T22:27:40.694Z,32.00
2023-01-29T22:32:47.560Z,31.53
2023-01-29T22:37:55.410Z,30.60
2023-01-29T22:43:02.439Z,36.53
2023-01-29T22:48:09.543Z,32.60
2023-01-29T22:53:16.400Z,31.10
2023-01-29T22:58:23.343Z,28.47
2023-01-29T23:03:30.151Z,25.17
2023-01-29T23:08:37.584Z,23.77
2023-01-29T23:13:46.880Z,20.43
2023-01-29T23:18:55.564Z,20.53
2023-01-29T23:24:06.117Z,19.87
2023-01-29T23:29:13.816Z,18.20
2023-01-29T23:34:20.750Z,18.43
2023-01-29T23:39:27.709Z,16.30
2023-01-29T23:44:36.059Z,16.57
2023-01-29T23:49:42.942Z,18.90
2023-01-29T23:54:49.943Z,19.40
2023-01-29T23:59:56.821Z,21.33
